Time;durP1;ratioP1;P1;durP2;ratioP2;P2;SDS_P1;SDS_P2;PMS_P1;PMS_P2;Temp;Humidity;BMP_temperature;BMP_pressure;BME280_temperature;BME280_humidity;BME280_pressure;Samples;Min_cycle;Max_cycle;Signal;HPM_P1;HPM_P2
2021/12/23 00:00:58;;;;;;;17.08;10.38;;;-0.70;99.90;;;;;;5112136;28;20393;-60
2021/12/23 00:03:24;;;;;;;15.80;10.20;;;-0.70;99.90;;;;;;5111893;28;20493;-59
2021/12/23 00:05:50;;;;;;;13.93;9.43;;;-0.80;99.90;;;;;;5111867;28;20077;-60
2021/12/23 00:08:16;;;;;;;15.40;10.85;;;-0.70;99.90;;;;;;5111866;28;20385;-60
2021/12/23 00:10:41;;;;;;;16.17;10.55;;;-0.70;99.90;;;;;;5111836;28;20031;-60
2021/12/23 00:13:08;;;;;;;16.02;11.00;;;-0.70;99.90;;;;;;5112090;28;20031;-60
2021/12/23 00:16:00;;;;;;;16.92;10.80;;;-0.70;99.90;;;;;;5113686;28;20058;-60
2021/12/23 00:23:52;;;;;;;17.60;10.50;;;-0.60;99.90;;;;;;5115626;28;20047;-60
2021/12/23 00:26:18;;;;;;;17.33;10.27;;;-0.60;99.90;;;;;;5115688;28;20115;-60
2021/12/23 00:28:44;;;;;;;15.90;11.20;;;-0.60;99.90;;;;;;5115702;28;20043;-60
2021/12/23 00:31:10;;;;;;;17.05;11.50;;;-0.60;99.90;;;;;;5115719;28;20092;-60
2021/12/23 00:33:39;;;;;;;17.65;10.57;;;-0.50;99.90;;;;;;5115381;28;20028;-60
2021/12/23 00:36:05;;;;;;;19.77;11.05;;;-0.50;99.90;;;;;;5115641;28;20048;-60
2021/12/23 00:38:36;;;;;;;22.08;12.68;;;-0.50;99.90;;;;;;5115312;28;20043;-60
2021/12/23 00:41:03;;;;;;;17.83;10.93;;;-0.50;99.90;;;;;;5115382;28;20039;-60
2021/12/23 00:43:30;;;;;;;18.08;11.25;;;-0.40;99.90;;;;;;5115161;27;20473;-60
2021/12/23 00:45:56;;;;;;;15.93;11.32;;;-0.40;99.90;;;;;;5115022;28;20086;-59
2021/12/23 00:48:22;;;;;;;16.63;11.77;;;-0.40;99.90;;;;;;5115229;28;20035;-60
2021/12/23 00:50:47;;;;;;;15.63;11.07;;;-0.40;99.90;;;;;;5115188;28;20036;-60
2021/12/23 00:53:18;;;;;;;19.23;12.05;;;-0.40;99.90;;;;;;5115057;28;20043;-60
2021/12/23 00:55:51;;;;;;;19.73;10.73;;;-0.40;99.90;;;;;;5113791;28;20119;-60
2021/12/23 00:58:17;;;;;;;23.33;11.80;;;-0.30;99.90;;;;;;5114917;28;20073;-60
2021/12/23 01:00:44;;;;;;;18.40;11.95;;;-0.30;99.90;;;;;;5114744;28;20043;-59
2021/12/23 01:03:10;;;;;;;17.13;10.88;;;-0.40;99.90;;;;;;5115082;28;20046;-59
2021/12/23 01:05:35;;;;;;;17.70;11.40;;;-0.30;99.90;;;;;;5114854;28;20039;-60
2021/12/23 01:08:01;;;;;;;17.45;11.10;;;-0.30;99.90;;;;;;5114819;28;20412;-59
2021/12/23 01:10:27;;;;;;;16.33;10.60;;;-0.20;99.90;;;;;;5114688;28;20036;-60
2021/12/23 01:13:01;;;;;;;25.30;11.30;;;-0.20;99.90;;;;;;5114657;27;20564;-60
2021/12/23 01:18:08;;;;;;;17.70;11.13;;;-0.20;99.90;;;;;;5114899;28;20115;-60
2021/12/23 01:20:51;;;;;;;16.02;11.95;;;-0.20;99.90;;;;;;5114381;28;20059;-60
2021/12/23 01:23:19;;;;;;;16.80;11.60;;;-0.20;99.90;;;;;;5114360;28;20066;-60
2021/12/23 01:25:45;;;;;;;18.20;11.32;;;-0.20;99.90;;;;;;5114509;28;20043;-60
2021/12/23 01:28:11;;;;;;;15.95;11.70;;;-0.20;99.90;;;;;;5114308;28;20039;-60
2021/12/23 01:30:37;;;;;;;18.60;11.60;;;-0.20;99.90;;;;;;5113119;28;20123;-60
2021/12/23 01:33:05;;;;;;;17.83;11.00;;;-0.20;99.90;;;;;;5114719;27;20035;-60
2021/12/23 01:35:32;;;;;;;15.63;11.30;;;-0.20;99.90;;;;;;5114511;28;20051;-60
2021/12/23 01:37:57;;;;;;;17.92;12.10;;;-0.20;99.90;;;;;;5114250;28;20065;-60
2021/12/23 01:40:26;;;;;;;19.33;11.98;;;-0.20;99.90;;;;;;5114491;28;20047;-60
2021/12/23 01:42:53;;;;;;;17.67;12.27;;;-0.20;99.90;;;;;;5114297;28;20038;-60
2021/12/23 01:45:29;;;;;;;23.15;12.93;;;-0.20;99.90;;;;;;5114034;28;20532;-60
2021/12/23 01:47:56;;;;;;;18.17;12.63;;;-0.20;99.90;;;;;;5113979;28;20063;-60
2021/12/23 01:50:27;;;;;;;18.73;12.13;;;-0.30;99.90;;;;;;5113959;28;20427;-60
2021/12/23 01:52:57;;;;;;;18.67;12.73;;;-0.30;99.90;;;;;;5113859;28;20048;-60
2021/12/23 01:55:23;;;;;;;19.90;13.05;;;-0.30;99.90;;;;;;5113835;27;20035;-61
2021/12/23 01:57:50;;;;;;;19.00;12.50;;;-0.30;99.90;;;;;;5113734;28;20035;-61
2021/12/23 02:00:18;;;;;;;21.40;12.50;;;-0.30;99.90;;;;;;5112691;28;20028;-60
2021/12/23 02:02:44;;;;;;;26.45;14.02;;;-0.40;99.90;;;;;;5113823;28;20043;-61
2021/12/23 02:05:10;;;;;;;18.83;13.10;;;-0.40;99.90;;;;;;5113644;27;20039;-60
2021/12/23 02:07:37;;;;;;;20.58;13.05;;;-0.40;99.90;;;;;;5113845;28;20042;-60
2021/12/23 02:10:05;;;;;;;22.33;13.05;;;-0.30;99.90;;;;;;5113609;28;20081;-60
2021/12/23 02:12:31;;;;;;;19.60;12.00;;;-0.30;99.90;;;;;;5112625;28;20051;-60
2021/12/23 02:14:57;;;;;;;18.83;12.82;;;-0.40;99.90;;;;;;5113450;28;20043;-60
2021/12/23 02:17:22;;;;;;;21.15;13.02;;;-0.30;99.90;;;;;;5113454;28;20100;-60
2021/12/23 02:19:53;;;;;;;18.95;12.77;;;-0.40;99.90;;;;;;5113191;28;20052;-60
2021/12/23 02:22:19;;;;;;;20.95;12.60;;;-0.40;99.90;;;;;;5113377;28;20052;-60
2021/12/23 02:24:45;;;;;;;24.25;13.23;;;-0.30;99.90;;;;;;5113342;28;20043;-60
2021/12/23 02:27:11;;;;;;;23.70;13.52;;;-0.30;99.90;;;;;;5113249;28;20051;-60
2021/12/23 02:29:37;;;;;;;19.00;12.48;;;-0.30;99.90;;;;;;5113144;28;20118;-60
2021/12/23 02:32:04;;;;;;;23.92;13.75;;;-0.30;99.90;;;;;;5113215;28;20035;-60
2021/12/23 02:34:30;;;;;;;18.42;13.07;;;-0.30;99.90;;;;;;5112978;28;20462;-60
2021/12/23 02:36:58;;;;;;;19.55;13.48;;;-0.30;99.90;;;;;;5113223;28;20035;-60
2021/12/23 02:39:26;;;;;;;22.87;13.93;;;-0.30;99.90;;;;;;5112614;28;20504;-60
2021/12/23 02:41:52;;;;;;;23.85;13.65;;;-0.30;99.90;;;;;;5113166;28;20039;-60
2021/12/23 02:44:18;;;;;;;21.10;13.23;;;-0.30;99.90;;;;;;5112745;28;20051;-60
2021/12/23 02:46:44;;;;;;;19.70;13.18;;;-0.20;99.90;;;;;;5112820;28;20050;-60
2021/12/23 02:49:10;;;;;;;18.80;12.48;;;-0.30;99.90;;;;;;5113168;28;20035;-60
2021/12/23 02:51:37;;;;;;;20.92;12.93;;;-0.30;99.90;;;;;;5113032;28;20042;-60
2021/12/23 02:54:03;;;;;;;19.45;12.48;;;-0.30;99.90;;;;;;5112577;28;20418;-60
2021/12/23 02:56:29;;;;;;;18.60;12.38;;;-0.30;99.90;;;;;;5112685;28;20043;-60
2021/12/23 02:58:55;;;;;;;23.48;13.60;;;-0.30;99.90;;;;;;5112719;28;20039;-60
2021/12/23 03:01:22;;;;;;;23.70;14.30;;;-0.30;99.90;;;;;;5112536;28;20499;-60
2021/12/23 03:03:48;;;;;;;23.65;13.60;;;-0.30;99.90;;;;;;5112440;28;20530;-60
2021/12/23 03:06:18;;;;;;;25.58;14.43;;;-0.40;99.90;;;;;;5112623;28;20040;-60
2021/12/23 03:08:47;;;;;;;18.30;13.45;;;-0.30;99.90;;;;;;5112655;28;20065;-60
2021/12/23 03:11:17;;;;;;;17.88;12.20;;;-0.40;99.90;;;;;;5112616;28;20512;-60
2021/12/23 03:13:43;;;;;;;20.50;13.32;;;-0.40;99.90;;;;;;5112355;28;20401;-60
2021/12/23 03:16:13;;;;;;;21.85;14.05;;;-0.40;99.90;;;;;;5112435;28;20039;-60
2021/12/23 03:18:39;;;;;;;21.48;14.32;;;-0.30;99.90;;;;;;5112615;28;20035;-60
2021/12/23 03:21:05;;;;;;;21.83;13.90;;;-0.40;99.90;;;;;;5112257;28;20401;-60
2021/12/23 03:23:32;;;;;;;20.77;14.27;;;-0.40;99.90;;;;;;5111103;28;20047;-60
2021/12/23 03:25:59;;;;;;;21.33;13.30;;;-0.40;99.90;;;;;;5111170;28;20051;-60
2021/12/23 03:28:25;;;;;;;22.55;14.57;;;-0.40;99.90;;;;;;5112229;28;20127;-60
2021/12/23 03:30:51;;;;;;;19.00;13.52;;;-0.40;99.90;;;;;;5112610;28;20528;-60
2021/12/23 03:33:17;;;;;;;22.63;13.35;;;-0.30;99.90;;;;;;5112185;28;20531;-60
2021/12/23 03:35:43;;;;;;;19.38;13.40;;;-0.30;99.90;;;;;;5112312;28;20109;-60
2021/12/23 03:38:09;;;;;;;22.27;15.15;;;-0.40;99.90;;;;;;5112291;28;20067;-60
2021/12/23 03:40:35;;;;;;;20.88;13.80;;;-0.40;99.90;;;;;;5112170;28;20487;-60
2021/12/23 03:43:01;;;;;;;21.73;15.02;;;-0.30;99.90;;;;;;5112143;28;20469;-60
2021/12/23 03:45:27;;;;;;;23.55;14.63;;;-0.30;99.90;;;;;;5112208;28;20039;-60
2021/12/23 03:47:52;;;;;;;26.90;14.02;;;-0.20;99.90;;;;;;5111045;28;20040;-60
2021/12/23 03:50:20;;;;;;;21.63;14.82;;;-0.30;99.90;;;;;;5113658;28;20474;-60
2021/12/23 03:52:46;;;;;;;23.20;13.63;;;-0.20;99.90;;;;;;5116297;28;20079;-60
2021/12/23 03:55:12;;;;;;;22.23;14.20;;;-0.20;99.90;;;;;;5116110;28;20035;-60
2021/12/23 03:57:38;;;;;;;22.30;14.63;;;-0.20;99.90;;;;;;5116358;28;20031;-60
2021/12/23 04:00:07;;;;;;;21.25;14.48;;;-0.20;99.90;;;;;;5116409;27;20131;-60
2021/12/23 04:02:33;;;;;;;;;;;-0.20;99.90;;;;;;5116555;28;20126;-60
2021/12/23 04:04:59;;;;;;;23.95;13.57;;;-0.20;99.90;;;;;;5116149;28;20034;-60
2021/12/23 04:07:24;;;;;;;22.80;14.10;;;-0.20;99.90;;;;;;5116107;28;20039;-60
2021/12/23 04:09:50;;;;;;;24.58;15.27;;;-0.20;99.90;;;;;;5116064;28;20053;-60
2021/12/23 04:12:16;;;;;;;22.15;14.43;;;-0.20;99.90;;;;;;5115757;28;20041;-60
2021/12/23 04:14:41;;;;;;;21.70;13.98;;;-0.20;99.90;;;;;;5116080;28;20114;-60
2021/12/23 04:17:07;;;;;;;21.17;13.60;;;-0.20;99.90;;;;;;5115853;28;20478;-60
2021/12/23 04:19:33;;;;;;;20.48;14.70;;;-0.20;99.90;;;;;;5114335;28;20539;-60
2021/12/23 04:22:00;;;;;;;22.60;14.13;;;-0.10;99.90;;;;;;5115686;28;20043;-60
2021/12/23 04:24:27;;;;;;;23.17;14.73;;;-0.10;99.90;;;;;;5115634;28;20040;-60
2021/12/23 04:26:52;;;;;;;21.23;13.50;;;-0.10;99.90;;;;;;5115412;28;20039;-60
2021/12/23 04:29:18;;;;;;;25.80;14.45;;;-0.10;99.90;;;;;;5115672;28;20073;-60
2021/12/23 04:31:44;;;;;;;20.02;12.48;;;-0.10;99.90;;;;;;5115639;28;20042;-60
2021/12/23 04:34:10;;;;;;;22.45;13.52;;;-0.10;99.90;;;;;;5115520;28;20421;-60
2021/12/23 04:36:36;;;;;;;20.90;14.27;;;-0.10;99.90;;;;;;5114009;28;20046;-60
2021/12/23 04:39:03;;;;;;;27.52;14.57;;;-0.10;99.90;;;;;;5115343;28;20036;-60
2021/12/23 04:41:31;;;;;;;23.67;14.70;;;-0.10;99.90;;;;;;5115284;28;20397;-60
2021/12/23 04:43:57;;;;;;;21.67;13.70;;;-0.10;99.90;;;;;;5115290;28;20505;-60
2021/12/23 04:46:22;;;;;;;23.33;14.73;;;0.00;99.90;;;;;;5115288;28;20036;-60
2021/12/23 04:48:48;;;;;;;20.17;13.55;;;-0.10;99.90;;;;;;5115126;28;20032;-60
2021/12/23 04:51:15;;;;;;;23.08;14.65;;;0.00;99.90;;;;;;5115187;28;20036;-60
2021/12/23 04:53:41;;;;;;;21.67;15.00;;;0.00;99.90;;;;;;5115030;28;20530;-60
2021/12/23 04:56:07;;;;;;;24.52;14.77;;;0.00;99.90;;;;;;5115030;28;20075;-60
2021/12/23 04:58:33;;;;;;;21.30;14.85;;;0.00;99.90;;;;;;5115230;28;20132;-60
2021/12/23 05:00:59;;;;;;;21.90;15.90;;;0.00;99.90;;;;;;5114453;28;20032;-60
2021/12/23 05:03:25;;;;;;;22.00;14.55;;;0.60;99.90;;;;;;5115173;28;20122;-60
2021/12/23 05:05:52;;;;;;;20.77;13.82;;;0.10;99.90;;;;;;5115039;28;20098;-60
2021/12/23 05:08:18;;;;;;;26.98;15.30;;;0.10;99.90;;;;;;5114975;28;20120;-60
2021/12/23 05:10:45;;;;;;;23.55;13.82;;;0.10;99.90;;;;;;5114783;28;20361;-60
2021/12/23 05:13:11;;;;;;;19.88;13.75;;;0.20;99.90;;;;;;5114629;28;20042;-60
2021/12/23 05:15:37;;;;;;;19.55;14.50;;;0.20;99.90;;;;;;5114822;28;20036;-60
2021/12/23 05:18:03;;;;;;;20.95;14.48;;;0.20;99.90;;;;;;5114712;28;20519;-60
2021/12/23 05:20:28;;;;;;;22.38;14.82;;;0.30;99.90;;;;;;5114404;28;20085;-60
2021/12/23 05:22:54;;;;;;;21.90;14.75;;;0.30;99.90;;;;;;5114445;28;20039;-60
2021/12/23 05:25:20;;;;;;;21.13;13.75;;;0.30;99.90;;;;;;5114273;28;20032;-60
2021/12/23 05:27:47;;;;;;;23.33;14.68;;;0.30;99.90;;;;;;5114658;28;20093;-60
2021/12/23 05:30:16;;;;;;;24.85;14.82;;;0.30;99.90;;;;;;5114401;28;20039;-60
2021/12/23 05:32:42;;;;;;;19.35;13.45;;;0.40;99.90;;;;;;5114343;28;20130;-60
2021/12/23 05:35:10;;;;;;;27.30;13.65;;;0.40;99.90;;;;;;5114172;28;20039;-60
2021/12/23 05:37:35;;;;;;;22.52;14.30;;;0.40;99.90;;;;;;5114244;27;20032;-60
2021/12/23 05:40:03;;;;;;;22.95;13.63;;;0.40;99.90;;;;;;5112936;28;20388;-60
2021/12/23 05:42:28;;;;;;;19.75;13.10;;;0.40;99.90;;;;;;5114280;28;20114;-60
2021/12/23 05:44:54;;;;;;;19.38;13.35;;;0.40;99.90;;;;;;5114271;28;20123;-60
2021/12/23 05:47:20;;;;;;;21.00;14.23;;;0.30;99.90;;;;;;5113982;28;20040;-60
2021/12/23 05:49:45;;;;;;;22.90;13.88;;;0.40;99.90;;;;;;5114099;27;20058;-60
2021/12/23 05:52:11;;;;;;;21.45;14.45;;;0.40;99.90;;;;;;5113928;28;20036;-60
2021/12/23 05:54:36;;;;;;;20.73;13.25;;;0.40;99.90;;;;;;5114084;28;20087;-60
2021/12/23 05:57:02;;;;;;;22.67;14.25;;;0.50;99.90;;;;;;5113862;28;20039;-60
2021/12/23 05:59:32;;;;;;;21.13;12.70;;;0.40;99.90;;;;;;5113873;28;20040;-60
2021/12/23 06:01:59;;;;;;;21.15;13.60;;;0.50;99.90;;;;;;5113805;28;20035;-60
2021/12/23 06:04:25;;;;;;;22.05;14.80;;;0.50;99.90;;;;;;5113752;27;20047;-60
2021/12/23 06:06:51;;;;;;;23.92;14.15;;;0.40;99.90;;;;;;5113423;27;20058;-60
2021/12/23 06:09:17;;;;;;;27.67;15.57;;;0.40;99.90;;;;;;5113621;28;20039;-60
2021/12/23 06:11:43;;;;;;;22.63;14.75;;;0.40;99.90;;;;;;5113618;28;20428;-60
2021/12/23 06:14:08;;;;;;;23.15;15.63;;;0.40;99.90;;;;;;5112687;28;20059;-60
2021/12/23 06:16:34;;;;;;;22.83;15.35;;;0.40;99.90;;;;;;5113538;28;20047;-60
2021/12/23 06:19:00;;;;;;;20.95;14.57;;;0.40;99.90;;;;;;5113633;28;20103;-60
2021/12/23 06:21:29;;;;;;;25.13;15.25;;;0.40;99.90;;;;;;5113222;28;20467;-60
2021/12/23 06:23:55;;;;;;;26.55;16.98;;;0.40;99.90;;;;;;5113667;28;20857;-60
2021/12/23 06:26:21;;;;;;;24.92;16.35;;;0.40;99.90;;;;;;5113530;28;20044;-60
2021/12/23 06:28:47;;;;;;;24.85;15.75;;;0.40;99.90;;;;;;5113346;28;20036;-60
2021/12/23 06:31:13;;;;;;;27.13;16.83;;;0.40;99.90;;;;;;5113155;28;20039;-60
2021/12/23 06:33:38;;;;;;;23.92;16.25;;;0.40;99.90;;;;;;5113099;27;20088;-60
2021/12/23 06:36:05;;;;;;;22.05;15.63;;;0.40;99.90;;;;;;5112805;28;20481;-60
2021/12/23 06:38:31;;;;;;;22.55;15.68;;;0.40;99.90;;;;;;5113182;28;20044;-60
2021/12/23 06:40:57;;;;;;;22.20;15.07;;;0.40;99.90;;;;;;5112915;28;20481;-60
2021/12/23 06:43:23;;;;;;;37.95;15.85;;;0.40;99.90;;;;;;5112931;28;20126;-60
2021/12/23 06:45:49;;;;;;;22.98;15.57;;;0.40;99.90;;;;;;5112703;28;20123;-60
2021/12/23 06:48:14;;;;;;;22.92;15.45;;;0.40;99.90;;;;;;5112690;28;20039;-60
2021/12/23 06:50:42;;;;;;;27.23;16.42;;;0.40;99.90;;;;;;5112777;28;20043;-60
2021/12/23 06:53:08;;;;;;;23.42;15.45;;;0.40;99.90;;;;;;5112883;28;20032;-60
2021/12/23 06:55:34;;;;;;;26.63;17.13;;;0.50;99.90;;;;;;5112765;28;20385;-60
2021/12/23 06:58:00;;;;;;;25.17;16.30;;;0.50;99.90;;;;;;5112599;28;20043;-60
2021/12/23 07:00:28;;;;;;;30.98;17.25;;;0.50;99.90;;;;;;5112611;28;20394;-60
2021/12/23 07:02:54;;;;;;;28.15;17.45;;;0.50;99.90;;;;;;5112545;28;20051;-60
2021/12/23 07:05:21;;;;;;;23.10;16.17;;;0.50;99.90;;;;;;5112414;28;20042;-60
2021/12/23 07:08:04;;;;;;;26.92;17.38;;;0.50;99.90;;;;;;5112684;28;20039;-60
2021/12/23 07:10:32;;;;;;;28.80;17.83;;;0.50;99.90;;;;;;5112543;28;20056;-60
2021/12/23 07:13:00;;;;;;;27.45;18.17;;;0.60;99.90;;;;;;5112514;28;20050;-60
2021/12/23 07:15:26;;;;;;;28.27;19.00;;;0.60;99.90;;;;;;5112417;28;20036;-60
2021/12/23 07:17:55;;;;;;;28.10;18.90;;;0.60;99.90;;;;;;5112281;28;20051;-60
2021/12/23 07:20:22;;;;;;;28.73;17.70;;;0.60;99.90;;;;;;5112226;28;20055;-60
2021/12/23 07:22:48;;;;;;;29.52;19.30;;;0.60;99.90;;;;;;5112543;28;20085;-60
2021/12/23 07:25:15;;;;;;;31.08;18.88;;;0.60;99.90;;;;;;5112342;28;20067;-60
2021/12/23 07:27:42;;;;;;;29.38;18.88;;;0.60;99.90;;;;;;5112273;28;20043;-60
2021/12/23 07:30:10;;;;;;;29.67;18.83;;;0.60;99.90;;;;;;5112288;28;20040;-60
2021/12/23 07:32:36;;;;;;;26.08;18.50;;;0.60;99.90;;;;;;5112369;28;20389;-60
2021/12/23 07:35:02;;;;;;;29.98;19.25;;;0.60;99.90;;;;;;5112337;28;20032;-60
2021/12/23 07:37:28;;;;;;;27.75;18.25;;;0.50;99.90;;;;;;5112321;28;20047;-60
2021/12/23 07:39:55;;;;;;;30.17;19.02;;;0.50;99.90;;;;;;5112211;28;20035;-61
2021/12/23 07:42:21;;;;;;;30.58;20.17;;;0.60;99.90;;;;;;5112183;28;20039;-60
2021/12/23 07:44:47;;;;;;;30.38;18.95;;;0.50;99.90;;;;;;5112176;28;20092;-60
2021/12/23 07:47:14;;;;;;;26.95;18.33;;;0.50;99.90;;;;;;5112012;28;20599;-60
2021/12/23 07:49:41;;;;;;;31.13;18.70;;;0.50;99.90;;;;;;5112276;28;20076;-60
2021/12/23 07:52:07;;;;;;;29.30;18.20;;;0.50;99.90;;;;;;5112270;28;20461;-60
2021/12/23 07:54:37;;;;;;;29.00;18.95;;;0.50;99.90;;;;;;5112215;28;20093;-60
2021/12/23 07:57:03;;;;;;;27.30;19.23;;;0.40;99.90;;;;;;5111972;28;20044;-60
2021/12/23 07:59:29;;;;;;;26.65;17.73;;;0.50;99.90;;;;;;5112043;28;20036;-60
2021/12/23 08:01:56;;;;;;;29.95;18.42;;;0.50;99.90;;;;;;5112467;28;20055;-60
2021/12/23 08:04:22;;;;;;;29.23;19.38;;;0.50;99.90;;;;;;5112243;28;20062;-60
2021/12/23 08:06:54;;;;;;;31.75;19.33;;;0.50;99.90;;;;;;5111912;28;20656;-60
2021/12/23 08:09:20;;;;;;;27.08;18.52;;;0.50;99.90;;;;;;5111848;28;20046;-60
2021/12/23 08:11:45;;;;;;;31.70;19.90;;;0.40;99.90;;;;;;5111506;28;20044;-60
2021/12/23 08:14:11;;;;;;;28.83;18.17;;;0.40;99.90;;;;;;5110860;28;20101;-60
2021/12/23 08:16:36;;;;;;;29.20;18.25;;;0.50;99.90;;;;;;5112046;28;20405;-60
2021/12/23 08:19:02;;;;;;;27.63;18.58;;;0.50;99.90;;;;;;5112055;28;20728;-60
2021/12/23 08:21:28;;;;;;;33.38;20.25;;;0.50;99.90;;;;;;5111785;28;20044;-60
2021/12/23 08:23:54;;;;;;;27.55;18.55;;;0.50;99.90;;;;;;5111762;28;20071;-60
2021/12/23 08:26:27;;;;;;;28.27;19.25;;;0.50;99.90;;;;;;5111744;28;20047;-60
2021/12/23 08:28:53;;;;;;;27.45;18.83;;;0.50;99.90;;;;;;5111883;28;20053;-60
2021/12/23 08:31:20;;;;;;;39.30;19.48;;;0.50;99.90;;;;;;5112123;28;20044;-60
2021/12/23 08:33:47;;;;;;;32.78;19.77;;;0.50;99.90;;;;;;5111852;28;20043;-60
2021/12/23 08:36:13;;;;;;;25.95;17.42;;;0.50;99.90;;;;;;5112972;28;20118;-60
2021/12/23 08:38:40;;;;;;;28.90;18.42;;;0.40;99.90;;;;;;5115738;28;20130;-60
2021/12/23 08:41:06;;;;;;;28.67;19.02;;;0.40;99.90;;;;;;5115699;28;20039;-60
2021/12/23 08:43:31;;;;;;;30.42;19.38;;;0.40;99.90;;;;;;5115394;28;20035;-60
2021/12/23 08:45:57;;;;;;;33.85;19.58;;;0.40;99.90;;;;;;5115316;28;20105;-60
2021/12/23 08:48:23;;;;;;;32.85;19.98;;;0.40;99.90;;;;;;5115333;28;20412;-60
2021/12/23 08:50:49;;;;;;;31.58;20.15;;;0.40;99.90;;;;;;5115263;28;20063;-60
2021/12/23 08:53:14;;;;;;;31.67;19.90;;;0.40;99.90;;;;;;5115101;28;20439;-60
2021/12/23 08:55:40;;;;;;;29.67;19.58;;;0.40;99.90;;;;;;5114864;28;20043;-60
2021/12/23 08:58:06;;;;;;;30.70;19.20;;;0.40;99.90;;;;;;5115306;28;20114;-60
2021/12/23 09:00:35;;;;;;;30.77;20.45;;;0.40;99.90;;;;;;5115138;28;20036;-60
2021/12/23 09:03:01;;;;;;;35.70;21.17;;;0.40;99.90;;;;;;5114999;28;20040;-60
2021/12/23 09:05:28;;;;;;;32.63;20.65;;;0.40;99.90;;;;;;5114827;27;20193;-60
2021/12/23 09:07:54;;;;;;;31.05;19.67;;;0.40;99.90;;;;;;5114755;28;20101;-60
2021/12/23 09:10:20;;;;;;;34.10;20.60;;;0.40;99.90;;;;;;5114743;28;20033;-60
2021/12/23 09:12:46;;;;;;;33.47;21.33;;;0.40;99.90;;;;;;5115041;28;20035;-60
2021/12/23 09:15:12;;;;;;;32.80;21.65;;;0.40;99.90;;;;;;5114809;28;20480;-60
2021/12/23 09:17:38;;;;;;;34.42;21.10;;;0.40;99.90;;;;;;5114805;28;20050;-60
2021/12/23 09:20:06;;;;;;;30.73;20.90;;;0.40;99.90;;;;;;5114492;28;20039;-61
2021/12/23 09:22:32;;;;;;;30.95;21.15;;;0.40;99.90;;;;;;5114445;28;20071;-62
2021/12/23 09:25:03;;;;;;;39.78;22.55;;;0.50;99.90;;;;;;5114742;28;20101;-61
2021/12/23 09:27:38;;;;;;;33.25;21.38;;;0.50;99.90;;;;;;5114599;28;20040;-61
2021/12/23 09:32:52;;;;;;;34.45;22.48;;;0.50;99.90;;;;;;5114309;27;20050;-61
2021/12/23 09:35:24;;;;;;;35.05;22.92;;;0.50;99.90;;;;;;5114227;28;20604;-61
2021/12/23 09:37:50;;;;;;;34.47;22.65;;;0.50;99.90;;;;;;5114397;28;20032;-61
2021/12/23 09:40:17;;;;;;;41.53;24.08;;;0.50;99.90;;;;;;5114475;28;20035;-62
2021/12/23 09:42:45;;;;;;;38.17;23.60;;;0.50;99.90;;;;;;5114313;28;20040;-61
2021/12/23 09:45:14;;;;;;;37.00;24.20;;;0.50;99.90;;;;;;5114161;28;20035;-62
2021/12/23 09:47:43;;;;;;;38.33;23.20;;;0.50;99.90;;;;;;5112660;28;20044;-62
2021/12/23 09:50:12;;;;;;;42.38;26.50;;;0.50;99.90;;;;;;5114261;28;20061;-62
2021/12/23 09:52:42;;;;;;;;;;;0.60;99.90;;;;;;5114459;28;20035;-62
2021/12/23 09:55:09;;;;;;;36.05;23.92;;;0.60;99.90;;;;;;5113999;28;19923;-62
2021/12/23 09:57:35;;;;;;;41.45;25.77;;;0.50;99.90;;;;;;5112895;28;20051;-62
2021/12/23 10:00:02;;;;;;;41.30;26.75;;;0.50;99.90;;;;;;5113692;28;20042;-62
2021/12/23 10:02:28;;;;;;;43.10;26.33;;;0.50;99.90;;;;;;5113739;28;20044;-62
2021/12/23 10:04:54;;;;;;;46.83;28.23;;;0.50;99.90;;;;;;5113853;28;20035;-62
2021/12/23 10:07:20;;;;;;;49.08;27.30;;;0.50;99.90;;;;;;5113772;28;20401;-62
2021/12/23 10:09:58;;;;;;;48.95;28.02;;;0.50;99.90;;;;;;5113638;28;20485;-62
2021/12/23 10:40:03;;;;;;;54.47;30.60;;;0.60;99.90;;;;;;5090598;28;20052;-62
2021/12/23 10:42:30;;;;;;;56.13;31.92;;;0.50;99.90;;;;;;5090434;28;20047;-62
2021/12/23 10:44:59;;;;;;;58.22;32.60;;;0.50;99.90;;;;;;5090368;28;20086;-62
2021/12/23 10:47:37;;;;;;;58.50;31.42;;;0.60;99.90;;;;;;5090152;28;20054;-62
2021/12/23 10:50:17;;;;;;;58.17;31.50;;;0.50;99.90;;;;;;5090217;28;20098;-62
2021/12/23 10:53:03;;;;;;;59.90;32.35;;;0.60;99.90;;;;;;5107146;28;20051;-62
2021/12/23 10:58:17;;;;;;;57.42;32.05;;;0.60;99.90;;;;;;5112316;28;20050;-62
2021/12/23 11:00:57;;;;;;;67.80;34.50;;;0.60;99.90;;;;;;5112415;28;20043;-62
2021/12/23 11:06:10;;;;;;;58.40;31.25;;;0.60;99.90;;;;;;5112604;28;19920;-62
2021/12/23 11:37:05;;;;;;;67.50;34.17;;;0.70;99.90;;;;;;5089821;28;20101;-63
2021/12/23 11:42:14;;;;;;;67.93;34.25;;;0.70;99.90;;;;;;5089661;28;20040;-62
2021/12/23 11:44:41;;;;;;;60.17;34.05;;;0.70;99.90;;;;;;5089655;28;20040;-63
2021/12/23 11:47:13;;;;;;;65.10;34.20;;;0.70;99.90;;;;;;5089548;28;20051;-63
2021/12/23 11:49:43;;;;;;;64.32;34.20;;;0.70;99.90;;;;;;5089662;28;20373;-62
2021/12/23 11:52:09;;;;;;;64.57;33.50;;;0.80;99.90;;;;;;5089547;28;20036;-61
2021/12/23 11:54:41;;;;;;;64.28;33.95;;;0.80;99.90;;;;;;5089584;28;20048;-61
2021/12/23 11:57:21;;;;;;;66.50;33.40;;;0.70;99.90;;;;;;5089674;28;20507;-62
2021/12/23 12:00:21;;;;;;;59.95;31.60;;;0.70;99.90;;;;;;5089532;28;20082;-62
2021/12/23 12:02:59;;;;;;;59.88;33.38;;;0.80;99.90;;;;;;5089593;28;20044;-62
2021/12/23 12:05:24;;;;;;;60.08;30.98;;;0.80;99.90;;;;;;5089378;28;20059;-62
2021/12/23 12:08:14;;;;;;;69.18;33.65;;;0.80;99.90;;;;;;5099483;28;20052;-62
2021/12/23 12:10:42;;;;;;;64.93;33.53;;;0.80;99.90;;;;;;5112409;28;20110;-62
2021/12/23 12:13:11;;;;;;;59.75;31.52;;;0.80;99.90;;;;;;5115975;28;20036;-62
2021/12/23 12:15:41;;;;;;;55.70;30.85;;;0.90;99.90;;;;;;5115908;28;20371;-62
2021/12/23 12:18:12;;;;;;;58.10;31.67;;;0.80;99.90;;;;;;5116235;28;20073;-62
2021/12/23 12:20:46;;;;;;;58.33;31.73;;;0.90;99.90;;;;;;5115734;28;20054;-61
2021/12/23 12:23:22;;;;;;;60.38;31.80;;;0.90;99.90;;;;;;5115721;28;20046;-62
2021/12/23 12:26:17;;;;;;;66.18;32.35;;;0.90;99.90;;;;;;5115742;28;20147;-61
2021/12/23 12:28:47;;;;;;;57.97;31.08;;;0.90;99.90;;;;;;5115805;28;20115;-61
2021/12/23 12:31:22;;;;;;;65.05;32.15;;;1.00;99.90;;;;;;5115597;28;20040;-61
2021/12/23 12:33:53;;;;;;;61.88;32.15;;;1.00;99.90;;;;;;5115255;28;20042;-62
2021/12/23 12:36:20;;;;;;;61.35;32.45;;;1.00;99.90;;;;;;5114124;28;20039;-62
2021/12/23 12:38:51;;;;;;;63.70;33.30;;;1.00;99.90;;;;;;5115630;28;20057;-62
2021/12/23 12:41:38;;;;;;;61.78;32.53;;;1.00;99.90;;;;;;5115254;28;20046;-62
2021/12/23 12:44:32;;;;;;;62.15;32.30;;;1.00;99.90;;;;;;5115277;28;20488;-61
2021/12/23 12:49:37;;;;;;;66.30;33.50;;;1.10;99.90;;;;;;5115400;27;20088;-62
2021/12/23 12:52:09;;;;;;;57.58;32.78;;;1.10;99.90;;;;;;5115620;28;20074;-62
2021/12/23 12:54:47;;;;;;;66.60;34.53;;;1.10;99.90;;;;;;5115260;28;20092;-61
2021/12/23 12:57:13;;;;;;;59.20;32.80;;;1.20;99.90;;;;;;5114966;28;20050;-61
2021/12/23 12:59:44;;;;;;;61.72;33.50;;;1.10;99.90;;;;;;5115249;27;20114;-62
2021/12/23 13:02:31;;;;;;;60.13;33.50;;;1.20;99.90;;;;;;5115183;27;20036;-61
2021/12/23 13:05:11;;;;;;;63.55;31.77;;;1.20;99.90;;;;;;5115011;28;20040;-61
2021/12/23 13:07:42;;;;;;;60.15;32.03;;;1.20;99.90;;;;;;5114741;28;20436;-61
2021/12/23 13:10:25;;;;;;;64.68;32.45;;;1.20;99.90;;;;;;5114970;28;20051;-61
2021/12/23 13:12:53;;;;;;;69.28;33.97;;;1.20;99.90;;;;;;5114857;28;20042;-61
2021/12/23 13:15:21;;;;;;;56.17;32.37;;;1.10;99.90;;;;;;5114836;28;20031;-61
2021/12/23 13:17:57;;;;;;;59.70;31.77;;;1.10;99.90;;;;;;5114756;28;20277;-61
2021/12/23 13:20:49;;;;;;;64.78;33.17;;;1.20;99.90;;;;;;5114703;28;20126;-60
2021/12/23 13:23:21;;;;;;;60.72;31.83;;;1.20;99.90;;;;;;5114411;28;20071;-60
2021/12/23 13:25:55;;;;;;;62.92;31.70;;;1.20;99.90;;;;;;5114455;28;20185;-61
2021/12/23 13:28:26;;;;;;;65.82;34.55;;;1.20;99.90;;;;;;5114263;28;20508;-61
2021/12/23 13:30:53;;;;;;;62.13;32.58;;;1.20;99.90;;;;;;5114522;28;20393;-62
2021/12/23 13:33:19;;;;;;;67.53;34.47;;;1.20;99.90;;;;;;5114342;28;20036;-60
2021/12/23 13:35:44;;;;;;;66.03;35.30;;;1.20;99.90;;;;;;5114297;28;20027;-61
2021/12/23 13:38:39;;;;;;;64.93;33.05;;;1.20;99.90;;;;;;5114400;28;20490;-61
2021/12/23 13:41:24;;;;;;;69.38;34.67;;;1.20;99.90;;;;;;5114324;28;20438;-61
2021/12/23 13:43:58;;;;;;;72.88;34.05;;;1.20;99.90;;;;;;5114226;28;20421;-60
2021/12/23 13:46:26;;;;;;;63.50;31.42;;;1.20;99.90;;;;;;5114104;28;20116;-61
2021/12/23 13:49:04;;;;;;;65.57;33.42;;;1.30;99.90;;;;;;5114153;28;20504;-60
2021/12/23 13:51:33;;;;;;;65.13;33.67;;;1.30;99.90;;;;;;5113856;28;20112;-61
2021/12/23 13:54:00;;;;;;;;;;;1.30;99.90;;;;;;5114713;28;20042;-61
2021/12/23 13:56:31;;;;;;;64.10;31.73;;;1.30;99.90;;;;;;5114152;28;19916;-61